Pagrindinis puslapis
METAR-TAF:

METAR-TAF

Oro uostai :

Ankara Etimesgut, Turkija

platuma: 39-57N, ilguma: 032-41E, Aukštis: 799 m

Dabartinis oras

Ataskaita buvo paskelbta 9 valandos ir 42 minutes, ne 17:05 UTC
Vėjas 12 kt iš Vakarų/Pietvakarių, svyruoja nuo Pietų/Pietvakarių ir Vakarų
Temperatūra 8°C
Drėgmė 66%
Slėgis 1007 hPa
Matomumas 10 km arba daugiau
Su prošvaistėmis ne aukštis 3500 ft
Su prošvaistėmis ne aukštis 9000 ft
lietus

METAR: LTAD 301705Z 24012KT 210V270 9999 -SHRA BKN035 BKN090 08/02 Q1007 NOSIG RMK RWY29 24014KT

Laikas: 05:47 (02:47 UTC)

Prognozė

Ataskaita buvo paskelbta 1 valandą ir 7 minutes, ne 01:40 UTC
Prognozė galioja nuo 01 metu 03 UTC su 01 metu 12 UTC
Vėjas 12 kt iš Vakarų
Matomumas 10 km arba daugiau
Išsisklaidę debesys ne aukštis 4000 ft
Su prošvaistėmis ne aukštis 10000 ft

TAF: LTAD 010140Z 0103/0112 26012KT 9999 SCT040 BKN100

Orai ataskaitas ir orų prognozės (METAR, TAF).

turimą stotys yra geltonos ir raudonos taškus žemėlapyje.

Perkelti pele per norėdami pamatyti stoties vardą.

Tada spustelėkite, norėdami matyti oro stebėjimo ir prognozės.

Norėdami pakeisti žemėlapį: spustelėkite ant žalios mygtukų su juodo kryžiaus žemyn,; žalią mygtuką su brūkšneliu, jei norite nutolinti; arba žalių rodyklių gretimoms žemėlapius.


METAR-TAF: